Calico Ridge, Nevada
Current Conditions -  °F | °C
As of 5:35 PM on Monday 24 Nov 2014 (Local Time) from KBVU Reporting Station
Clear Clear  
Wind Chill: 52°   Ceiling: Unl
Heat Index: 52°   Visibility: 10mi
Dew Point: 16°   Wind: 5mph
Humidity: 24%   Direction: 20°NNE
Pressure: 30.36"   Gusts: NA
Location:  36.0603°N, 114.956°W
Report Text: KBVU 250135Z AUTO 02004KT 10SM CLR 11/M09 A3036 RMK AO2
Loading
Personal Weather Stations






























Interactive Weather Map New forecast layout! Learn more

10-Day Weather Forecast

Advertisements
Track Severe Weather on mobile